createdAt,value
2018-06-18T00:00:28.689Z,6.90
2018-06-18T00:02:57.247Z,7.53
2018-06-18T00:05:25.792Z,7.87
2018-06-18T00:07:54.343Z,7.90
2018-06-18T00:10:22.885Z,6.87
2018-06-18T00:12:51.413Z,7.40
2018-06-18T00:15:19.582Z,7.87
2018-06-18T00:17:47.750Z,7.17
2018-06-18T00:20:16.330Z,8.43
2018-06-18T00:22:44.884Z,7.90
2018-06-18T00:25:13.410Z,8.13
2018-06-18T00:27:41.930Z,6.33
2018-06-18T00:30:10.475Z,6.03
2018-06-18T00:32:39.013Z,6.07
2018-06-18T00:35:07.596Z,5.97
2018-06-18T00:37:36.184Z,6.63
2018-06-18T00:40:04.758Z,5.77
2018-06-18T00:42:32.956Z,5.80
2018-06-18T00:45:01.485Z,7.77
2018-06-18T00:47:30.053Z,7.00
2018-06-18T00:49:58.594Z,6.87
2018-06-18T00:52:27.150Z,6.50
2018-06-18T00:54:55.653Z,7.00
2018-06-18T00:57:24.214Z,6.27
2018-06-18T00:59:52.776Z,5.67
2018-06-18T01:02:21.343Z,6.07
2018-06-18T01:04:49.902Z,6.33
2018-06-18T01:07:18.507Z,6.63
2018-06-18T01:09:47.100Z,6.77
2018-06-18T01:12:15.623Z,6.23
2018-06-18T01:14:44.159Z,6.27
2018-06-18T01:17:12.333Z,6.67
2018-06-18T01:19:40.550Z,7.07
2018-06-18T01:22:09.154Z,7.40
2018-06-18T01:24:44.976Z,6.83
2018-06-18T01:27:13.527Z,7.23
2018-06-18T01:29:42.061Z,6.40
2018-06-18T01:32:10.618Z,6.63
2018-06-18T01:34:39.174Z,6.17
2018-06-18T01:37:07.735Z,6.70
2018-06-18T01:39:36.267Z,5.93
2018-06-18T01:42:04.791Z,5.97
2018-06-18T01:44:33.332Z,6.73
2018-06-18T01:47:01.902Z,7.70
2018-06-18T01:49:30.427Z,6.27
2018-06-18T01:51:58.635Z,6.10
2018-06-18T01:54:27.193Z,6.43
2018-06-18T01:56:55.734Z,5.87
2018-06-18T01:59:24.274Z,6.20
2018-06-18T02:01:52.822Z,7.07
2018-06-18T02:04:21.493Z,6.00
2018-06-18T02:06:50.072Z,6.33
2018-06-18T02:09:18.623Z,9.43
2018-06-18T02:11:46.820Z,7.20
2018-06-18T02:14:15.374Z,6.33
2018-06-18T02:16:44.000Z,6.40
2018-06-18T02:19:12.510Z,7.03
2018-06-18T02:21:41.059Z,6.93
2018-06-18T02:24:09.260Z,7.47
2018-06-18T02:26:37.810Z,6.13
2018-06-18T02:29:11.688Z,6.33
2018-06-18T02:31:45.621Z,5.57
2018-06-18T02:34:19.536Z,5.83
2018-06-18T02:36:53.263Z,5.63
2018-06-18T02:39:21.427Z,5.37
2018-06-18T02:41:50.031Z,5.90
2018-06-18T02:44:18.553Z,6.10
2018-06-18T02:46:47.103Z,6.53
2018-06-18T02:49:15.637Z,7.33
2018-06-18T02:51:44.201Z,6.40
2018-06-18T02:54:12.759Z,6.17
2018-06-18T02:57:03.875Z,6.40
2018-06-18T02:59:32.381Z,5.57
2018-06-18T03:02:01.093Z,6.40
2018-06-18T03:04:29.641Z,6.10
2018-06-18T03:06:58.177Z,5.77
2018-06-18T03:09:26.719Z,5.93
2018-06-18T03:11:55.268Z,6.10
2018-06-18T03:14:23.784Z,6.03
2018-06-18T03:16:52.371Z,5.80
2018-06-18T03:19:26.234Z,6.70
2018-06-18T03:22:00.078Z,6.57
2018-06-18T03:24:33.549Z,6.40
2018-06-18T03:27:07.395Z,6.60
2018-06-18T03:29:36.719Z,6.37
2018-06-18T03:32:07.920Z,6.00
2018-06-18T03:34:36.489Z,5.83
2018-06-18T03:37:05.488Z,5.77
2018-06-18T03:39:34.012Z,5.27
2018-06-18T03:42:02.578Z,5.67
2018-06-18T03:45:37.523Z,6.20
2018-06-18T03:48:11.185Z,5.53
2018-06-18T03:50:39.459Z,5.87
2018-06-18T03:53:08.150Z,5.90
2018-06-18T03:55:42.403Z,6.13
2018-06-18T03:58:10.960Z,6.07
2018-06-18T04:00:55.032Z,6.13
2018-06-18T04:03:29.078Z,5.90
2018-06-18T04:06:02.897Z,6.47
2018-06-18T04:08:31.505Z,6.13
2018-06-18T04:12:06.132Z,5.70
2018-06-18T04:14:35.050Z,6.40
2018-06-18T04:17:03.569Z,5.33
2018-06-18T04:19:32.170Z,5.87
2018-06-18T04:22:00.899Z,5.07
2018-06-18T04:24:29.424Z,5.73
2018-06-18T04:26:58.367Z,5.83
2018-06-18T04:29:26.917Z,4.87
2018-06-18T04:31:55.747Z,5.33
2018-06-18T04:35:01.578Z,5.40
2018-06-18T04:37:29.782Z,5.60
2018-06-18T04:39:58.329Z,5.53
2018-06-18T04:42:32.191Z,6.23
2018-06-18T04:45:05.957Z,5.90
2018-06-18T04:47:39.907Z,6.60
2018-06-18T04:50:13.751Z,6.30
2018-06-18T04:52:42.344Z,5.90
2018-06-18T04:55:10.571Z,5.60
2018-06-18T04:57:39.127Z,4.90
2018-06-18T05:02:15.141Z,4.73
2018-06-18T05:04:43.709Z,5.17
2018-06-18T05:07:12.329Z,5.00
2018-06-18T05:09:52.213Z,5.37
2018-06-18T05:12:20.741Z,5.33
2018-06-18T05:14:49.276Z,4.90
2018-06-18T05:17:17.812Z,4.70
2018-06-18T05:19:46.347Z,4.67
2018-06-18T05:22:14.886Z,5.60
2018-06-18T05:24:43.428Z,5.13
2018-06-18T05:27:13.652Z,5.77
2018-06-18T05:29:42.384Z,5.60
2018-06-18T05:32:10.918Z,6.07
2018-06-18T05:34:39.487Z,6.27
2018-06-18T05:37:10.742Z,6.20
2018-06-18T05:39:39.315Z,6.27
2018-06-18T05:42:07.889Z,6.07
2018-06-18T05:44:36.464Z,6.60
2018-06-18T05:47:04.646Z,7.20
2018-06-18T05:49:33.191Z,6.63
2018-06-18T05:52:01.756Z,5.87
2018-06-18T05:54:30.337Z,6.20
2018-06-18T05:56:58.935Z,6.50
2018-06-18T05:59:27.514Z,7.20
2018-06-18T06:01:56.062Z,6.90
2018-06-18T06:04:24.266Z,6.73
2018-06-18T06:06:52.792Z,5.63
2018-06-18T06:09:21.373Z,5.80
2018-06-18T06:11:49.977Z,4.83
2018-06-18T06:14:18.623Z,4.90
2018-06-18T06:16:47.228Z,4.40
2018-06-18T06:19:15.807Z,4.63
2018-06-18T06:21:44.343Z,4.50
2018-06-18T06:24:12.925Z,4.60
2018-06-18T06:26:41.445Z,4.57
2018-06-18T06:29:09.965Z,5.13
2018-06-18T06:31:38.515Z,4.40
2018-06-18T06:34:06.738Z,4.50
2018-06-18T06:36:35.287Z,4.37
2018-06-18T06:39:06.038Z,4.10
2018-06-18T06:41:34.600Z,4.17
2018-06-18T06:44:02.811Z,4.17
2018-06-18T06:46:31.357Z,4.63
2018-06-18T06:48:59.911Z,4.10
2018-06-18T06:51:28.509Z,4.20
2018-06-18T06:53:57.091Z,3.90
2018-06-18T06:56:25.668Z,3.73
2018-06-18T06:58:54.249Z,3.80
2018-06-18T07:01:22.897Z,3.83
2018-06-18T07:03:51.385Z,3.90
2018-06-18T07:06:19.588Z,4.27
2018-06-18T07:08:48.155Z,4.07
2018-06-18T07:11:16.722Z,3.80
2018-06-18T07:13:44.982Z,3.80
2018-06-18T07:16:13.472Z,3.90
2018-06-18T07:18:42.004Z,3.80
2018-06-18T07:21:10.532Z,3.80
2018-06-18T07:23:39.119Z,4.30
2018-06-18T07:26:07.699Z,4.33
2018-06-18T07:28:36.240Z,4.10
2018-06-18T07:31:04.805Z,4.67
2018-06-18T07:33:33.323Z,4.50
2018-06-18T07:36:01.890Z,4.70
2018-06-18T07:38:30.467Z,3.90
2018-06-18T07:40:58.958Z,4.40
2018-06-18T07:43:27.549Z,4.40
2018-06-18T07:45:56.131Z,4.33
2018-06-18T07:48:24.721Z,4.40
2018-06-18T07:50:53.265Z,4.33
2018-06-18T07:53:21.840Z,3.80
2018-06-18T07:55:50.360Z,4.00
2018-06-18T07:58:18.925Z,3.87
2018-06-18T08:00:47.505Z,3.70
2018-06-18T08:03:16.079Z,3.93
2018-06-18T08:05:44.651Z,4.70
2018-06-18T08:08:13.199Z,4.40
2018-06-18T08:10:41.868Z,4.10
2018-06-18T08:13:10.415Z,4.37
2018-06-18T08:15:38.630Z,4.13
2018-06-18T08:18:07.190Z,4.13
2018-06-18T08:20:35.740Z,4.30
2018-06-18T08:23:04.281Z,4.67
2018-06-18T08:25:32.854Z,4.50
2018-06-18T08:28:01.399Z,4.10
2018-06-18T08:30:29.977Z,4.20
2018-06-18T08:32:58.562Z,4.17
2018-06-18T08:35:27.086Z,4.30
2018-06-18T08:37:55.635Z,4.13
2018-06-18T08:40:24.159Z,4.67
2018-06-18T08:42:52.351Z,4.43
2018-06-18T08:45:20.921Z,3.87
2018-06-18T08:47:49.105Z,4.17
2018-06-18T08:50:22.820Z,3.93
2018-06-18T08:52:56.686Z,3.90
2018-06-18T08:55:30.550Z,3.53
2018-06-18T08:58:04.461Z,3.23
2018-06-18T09:00:38.227Z,3.33
2018-06-18T09:03:15.935Z,3.60
2018-06-18T09:05:53.659Z,3.83
2018-06-18T09:08:27.028Z,3.23
2018-06-18T09:10:55.587Z,3.63
2018-06-18T09:13:30.407Z,3.77
2018-06-18T09:15:58.998Z,3.50
2018-06-18T09:18:27.515Z,3.60
2018-06-18T09:20:55.712Z,2.90
2018-06-18T09:23:23.868Z,3.60
2018-06-18T09:26:00.189Z,4.00
2018-06-18T09:28:30.037Z,3.70
2018-06-18T09:30:58.733Z,3.17
2018-06-18T09:33:27.293Z,3.30
2018-06-18T09:35:55.875Z,3.00
2018-06-18T09:38:24.878Z,3.33
2018-06-18T09:40:53.465Z,2.93
2018-06-18T09:43:22.016Z,3.33
2018-06-18T09:45:50.592Z,4.30
2018-06-18T09:48:19.153Z,3.00
2018-06-18T09:50:52.917Z,3.20
2018-06-18T09:53:26.818Z,2.90
2018-06-18T09:56:09.486Z,2.80
2018-06-18T09:58:43.334Z,3.00
2018-06-18T10:01:17.680Z,2.70
2018-06-18T10:03:46.222Z,2.83
2018-06-18T10:06:14.754Z,2.70
2018-06-18T10:08:43.418Z,3.13
2018-06-18T10:11:12.054Z,2.80
2018-06-18T10:13:41.397Z,2.30
2018-06-18T10:16:10.713Z,2.50
2018-06-18T10:18:39.444Z,2.53
2018-06-18T10:21:07.970Z,2.53
2018-06-18T10:23:36.516Z,2.63
2018-06-18T10:26:05.062Z,2.20
2018-06-18T10:28:33.654Z,2.40
2018-06-18T10:31:02.288Z,2.20
2018-06-18T10:33:36.098Z,2.20
2018-06-18T10:36:10.093Z,2.20
2018-06-18T10:38:43.946Z,2.00
2018-06-18T10:41:17.588Z,2.63
2018-06-18T10:43:46.100Z,2.57
2018-06-18T10:46:14.650Z,2.43
2018-06-18T10:48:43.152Z,2.00
2018-06-18T10:51:11.711Z,2.40
2018-06-18T10:53:40.256Z,2.40
2018-06-18T10:56:08.792Z,2.40
2018-06-18T10:58:37.304Z,2.50
2018-06-18T11:01:08.990Z,2.30
2018-06-18T11:03:37.934Z,2.70
2018-06-18T11:06:11.854Z,2.40
2018-06-18T11:08:40.378Z,2.60
2018-06-18T11:11:08.955Z,2.57
2018-06-18T11:13:37.477Z,2.70
2018-06-18T11:16:06.144Z,2.23
2018-06-18T11:18:40.858Z,1.90
2018-06-18T11:21:14.664Z,2.10
2018-06-18T11:23:48.541Z,2.30
2018-06-18T11:26:22.394Z,2.23
2018-06-18T11:28:50.903Z,2.20
2018-06-18T11:31:19.524Z,2.10
2018-06-18T11:33:47.697Z,2.30
2018-06-18T11:36:16.250Z,2.10
2018-06-18T11:38:44.830Z,2.17
2018-06-18T11:41:13.388Z,2.20
2018-06-18T11:43:41.946Z,1.90
2018-06-18T11:46:10.622Z,2.70
2018-06-18T11:48:39.164Z,2.20
2018-06-18T11:51:07.743Z,2.33
2018-06-18T11:53:36.287Z,2.10
2018-06-18T11:56:04.829Z,2.10
2018-06-18T11:58:38.632Z,2.10
2018-06-18T12:01:12.541Z,2.00
2018-06-18T12:03:46.473Z,2.10
2018-06-18T12:06:20.452Z,1.90
2018-06-18T12:09:53.236Z,2.37
2018-06-18T12:12:21.450Z,1.83
2018-06-18T12:14:49.978Z,2.00
2018-06-18T12:17:18.537Z,1.80
2018-06-18T12:19:47.168Z,1.63
2018-06-18T12:22:15.893Z,2.13
2018-06-18T12:24:44.387Z,1.60
2018-06-18T12:27:16.475Z,2.00
2018-06-18T12:29:45.068Z,1.80
2018-06-18T12:32:13.800Z,2.20
2018-06-18T12:34:42.392Z,2.10
2018-06-18T12:37:10.924Z,1.97
2018-06-18T12:39:39.495Z,2.37
2018-06-18T12:42:08.529Z,1.90
2018-06-18T12:45:42.631Z,1.93
2018-06-18T12:48:16.577Z,2.10
2018-06-18T12:50:50.233Z,2.10
2018-06-18T12:53:24.085Z,2.03
2018-06-18T12:55:58.275Z,2.20
2018-06-18T12:58:26.804Z,2.33
2018-06-18T13:00:55.483Z,2.10
2018-06-18T13:03:24.050Z,2.00
2018-06-18T13:05:52.204Z,2.40
2018-06-18T13:08:20.721Z,2.30
2018-06-18T13:10:49.265Z,2.40
2018-06-18T13:13:17.801Z,2.03
2018-06-18T13:15:46.011Z,2.00
2018-06-18T13:18:14.549Z,2.17
2018-06-18T13:20:43.101Z,2.20
2018-06-18T13:23:11.628Z,2.20
2018-06-18T13:25:39.838Z,2.40
2018-06-18T13:28:13.624Z,2.20
2018-06-18T13:30:41.816Z,2.40
2018-06-18T13:33:10.348Z,2.60
2018-06-18T13:35:38.882Z,2.40
2018-06-18T13:38:12.781Z,2.30
2018-06-18T13:40:46.274Z,2.13
2018-06-18T13:43:20.170Z,2.33
2018-06-18T13:45:52.891Z,2.43
2018-06-18T13:48:25.652Z,2.43
2018-06-18T13:50:53.869Z,2.20
2018-06-18T13:53:22.420Z,2.63
2018-06-18T13:55:50.661Z,2.50
2018-06-18T13:58:19.229Z,2.30
2018-06-18T14:00:47.824Z,2.30
2018-06-18T14:03:17.181Z,2.40
2018-06-18T14:05:45.470Z,2.10
2018-06-18T14:08:14.017Z,2.40
2018-06-18T14:10:42.548Z,2.20
2018-06-18T14:13:11.088Z,2.67
2018-06-18T14:15:39.662Z,2.20
2018-06-18T14:18:08.243Z,2.47
2018-06-18T14:20:36.827Z,2.63
2018-06-18T14:23:05.375Z,2.30
2018-06-18T14:25:33.933Z,2.33
2018-06-18T14:28:02.531Z,2.30
2018-06-18T14:30:36.311Z,2.30
2018-06-18T14:33:10.117Z,2.03
2018-06-18T14:35:43.861Z,2.37
2018-06-18T14:38:17.726Z,2.40
2018-06-18T14:40:46.333Z,2.42
2018-06-18T14:43:14.918Z,2.40
2018-06-18T14:45:43.503Z,2.30
2018-06-18T14:48:12.048Z,2.10
2018-06-18T14:50:40.552Z,1.98
2018-06-18T14:53:09.060Z,2.30
2018-06-18T14:55:37.685Z,2.33
2018-06-18T14:58:05.882Z,2.25
2018-06-18T15:00:35.329Z,2.37
2018-06-18T15:03:03.928Z,2.42
2018-06-18T15:05:38.697Z,2.17
2018-06-18T15:08:07.249Z,2.17
2018-06-18T15:10:41.231Z,2.20
2018-06-18T15:13:11.775Z,2.30
2018-06-18T15:15:45.740Z,2.10
2018-06-18T15:18:14.231Z,2.08
2018-06-18T15:20:42.867Z,1.90
2018-06-18T15:23:11.510Z,1.98
2018-06-18T15:25:43.205Z,1.80
2018-06-18T15:28:11.774Z,1.80
2018-06-18T15:30:40.332Z,2.10
2018-06-18T15:33:08.908Z,2.00
2018-06-18T15:35:37.107Z,1.90
2018-06-18T15:38:05.754Z,2.15
2018-06-18T15:40:34.298Z,1.98
2018-06-18T15:43:02.870Z,2.23
2018-06-18T15:45:31.452Z,2.23
2018-06-18T15:47:59.633Z,2.40
2018-06-18T15:50:28.161Z,2.40
2018-06-18T15:52:56.725Z,2.67
2018-06-18T15:55:25.236Z,2.60
2018-06-18T15:57:53.778Z,2.30
2018-06-18T16:00:22.322Z,2.37
2018-06-18T16:02:50.838Z,2.97
2018-06-18T16:05:19.029Z,2.60
2018-06-18T16:07:47.572Z,2.50
2018-06-18T16:10:16.122Z,2.67
2018-06-18T16:12:44.658Z,2.40
2018-06-18T16:15:13.202Z,2.83
2018-06-18T16:17:41.728Z,2.60
2018-06-18T16:20:10.281Z,2.50
2018-06-18T16:22:38.844Z,2.37
2018-06-18T16:25:07.398Z,2.30
2018-06-18T16:27:35.917Z,3.00
2018-06-18T16:30:04.596Z,2.57
2018-06-18T16:32:32.812Z,2.73
2018-06-18T16:35:01.355Z,2.63
2018-06-18T16:37:29.910Z,2.87
2018-06-18T16:39:58.456Z,2.53
2018-06-18T16:42:27.012Z,2.40
2018-06-18T16:44:55.582Z,2.53
2018-06-18T16:47:24.107Z,2.57
2018-06-18T16:49:52.671Z,2.10
2018-06-18T16:52:21.211Z,2.20
2018-06-18T16:54:49.841Z,2.70
2018-06-18T16:57:18.373Z,2.60
2018-06-18T16:59:46.913Z,2.40
2018-06-18T17:02:15.449Z,2.60
2018-06-18T17:04:44.018Z,2.50
2018-06-18T17:07:12.521Z,2.80
2018-06-18T17:09:41.136Z,2.30
2018-06-18T17:12:09.716Z,2.70
2018-06-18T17:14:38.289Z,2.73
2018-06-18T17:17:06.872Z,2.53
2018-06-18T17:19:35.836Z,2.67
2018-06-18T17:22:04.388Z,2.50
2018-06-18T17:24:32.930Z,2.50
2018-06-18T17:27:01.487Z,2.70
2018-06-18T17:29:30.069Z,2.37
2018-06-18T17:31:58.594Z,2.53
2018-06-18T17:34:27.159Z,2.77
2018-06-18T17:36:55.342Z,2.33
2018-06-18T17:39:23.570Z,3.23
2018-06-18T17:41:52.172Z,2.60
2018-06-18T17:44:20.745Z,2.50
2018-06-18T17:46:49.335Z,2.50
2018-06-18T17:49:17.864Z,2.50
2018-06-18T17:51:46.463Z,2.60
2018-06-18T17:54:14.998Z,2.80
2018-06-18T17:56:43.595Z,2.70
2018-06-18T17:59:12.193Z,2.30
2018-06-18T18:01:40.767Z,2.60
2018-06-18T18:04:09.324Z,2.33
2018-06-18T18:06:37.863Z,2.67
2018-06-18T18:09:08.464Z,2.87
2018-06-18T18:11:37.024Z,2.60
2018-06-18T18:14:05.661Z,2.60
2018-06-18T18:16:34.225Z,2.60
2018-06-18T18:19:02.817Z,2.77
2018-06-18T18:21:31.405Z,2.77
2018-06-18T18:24:06.304Z,2.83
2018-06-18T18:26:34.843Z,2.40
2018-06-18T18:29:03.397Z,2.60
2018-06-18T18:31:31.939Z,2.50
2018-06-18T18:34:00.645Z,2.70
2018-06-18T18:36:29.161Z,2.80
2018-06-18T18:38:57.705Z,2.67
2018-06-18T18:41:26.331Z,2.73
2018-06-18T18:43:54.817Z,3.10
2018-06-18T18:46:23.478Z,2.73
2018-06-18T18:48:52.139Z,2.93
2018-06-18T18:51:20.704Z,2.80
2018-06-18T18:53:49.293Z,2.70
2018-06-18T18:57:29.463Z,2.70
2018-06-18T18:59:57.987Z,2.73
2018-06-18T19:02:26.500Z,2.97
2018-06-18T19:04:58.480Z,2.80
2018-06-18T19:07:35.875Z,2.80
2018-06-18T19:10:11.512Z,3.03
2018-06-18T19:12:40.124Z,2.93
2018-06-18T19:15:09.070Z,2.70
2018-06-18T19:17:38.038Z,3.10
2018-06-18T19:20:14.068Z,2.60
2018-06-18T19:22:42.676Z,3.10
2018-06-18T19:25:10.895Z,3.00
2018-06-18T19:27:39.534Z,3.10
2018-06-18T19:30:08.299Z,2.93
2018-06-18T19:32:36.796Z,3.13
2018-06-18T19:35:05.731Z,3.00
2018-06-18T19:37:34.313Z,2.70
2018-06-18T19:40:02.847Z,3.17
2018-06-18T19:42:31.476Z,2.80
2018-06-18T19:45:00.006Z,3.00
2018-06-18T19:47:34.367Z,2.63
2018-06-18T19:50:02.945Z,3.30
2018-06-18T19:52:31.492Z,3.10
2018-06-18T19:55:03.893Z,3.03
2018-06-18T19:57:32.430Z,3.10
2018-06-18T20:00:01.019Z,3.17
2018-06-18T20:02:29.569Z,2.83
2018-06-18T20:04:58.211Z,2.70
2018-06-18T20:07:26.959Z,2.87
2018-06-18T20:09:55.183Z,3.17
2018-06-18T20:12:23.693Z,3.27
2018-06-18T20:14:52.232Z,3.67
2018-06-18T20:17:20.447Z,3.10
2018-06-18T20:19:49.010Z,2.90
2018-06-18T20:22:17.544Z,2.77
2018-06-18T20:24:47.066Z,3.03
2018-06-18T20:27:15.678Z,2.67
2018-06-18T20:29:43.860Z,2.70
2018-06-18T20:32:12.166Z,2.60
2018-06-18T20:34:41.632Z,2.80
2018-06-18T20:37:10.177Z,3.13
2018-06-18T20:39:38.752Z,3.00
2018-06-18T20:42:07.324Z,2.80
2018-06-18T20:44:35.956Z,2.40
2018-06-18T20:47:04.501Z,2.83
2018-06-18T20:49:33.059Z,2.87
2018-06-18T20:52:01.648Z,2.80
2018-06-18T20:54:30.182Z,2.90
2018-06-18T20:56:58.784Z,2.90
2018-06-18T20:59:27.302Z,2.77
2018-06-18T21:01:55.866Z,2.90
2018-06-18T21:04:24.422Z,3.00
2018-06-18T21:06:53.002Z,3.03
2018-06-18T21:09:21.572Z,3.00
2018-06-18T21:11:49.764Z,2.83
2018-06-18T21:14:18.352Z,3.03
2018-06-18T21:16:48.351Z,2.97
2018-06-18T21:19:16.926Z,3.17
2018-06-18T21:21:45.851Z,3.07
2018-06-18T21:24:14.383Z,3.07
2018-06-18T21:26:42.997Z,3.07
2018-06-18T21:29:11.586Z,3.30
2018-06-18T21:31:40.211Z,3.07
2018-06-18T21:34:08.774Z,3.50
2018-06-18T21:36:36.983Z,3.10
2018-06-18T21:39:07.762Z,3.33
2018-06-18T21:41:36.330Z,2.93
2018-06-18T21:44:05.807Z,3.20
2018-06-18T21:46:34.386Z,3.03
2018-06-18T21:49:02.989Z,3.27
2018-06-18T21:51:31.599Z,3.10
2018-06-18T21:54:00.273Z,3.00
2018-06-18T21:56:28.886Z,3.30
2018-06-18T21:58:57.440Z,3.17
2018-06-18T22:01:38.043Z,3.10
2018-06-18T22:04:06.666Z,2.77
2018-06-18T22:06:35.266Z,3.07
2018-06-18T22:09:05.269Z,2.90
2018-06-18T22:11:33.837Z,3.20
2018-06-18T22:14:02.444Z,3.47
2018-06-18T22:16:31.032Z,3.40
2018-06-18T22:18:59.556Z,2.90
2018-06-18T22:21:28.209Z,3.60
2018-06-18T22:23:56.757Z,3.60
2018-06-18T22:26:25.308Z,3.20
2018-06-18T22:28:53.896Z,3.50
2018-06-18T22:31:22.546Z,3.63
2018-06-18T22:33:51.104Z,3.40
2018-06-18T22:36:19.654Z,3.13
2018-06-18T22:38:48.301Z,3.30
2018-06-18T22:41:16.920Z,3.80
2018-06-18T22:43:45.449Z,3.37
2018-06-18T22:46:14.016Z,3.57
2018-06-18T22:48:42.676Z,3.60
2018-06-18T22:51:11.264Z,3.50
2018-06-18T22:53:39.609Z,3.87
2018-06-18T22:56:08.264Z,3.37
2018-06-18T22:58:36.906Z,3.47
2018-06-18T23:01:05.498Z,3.43
2018-06-18T23:03:34.011Z,3.87
2018-06-18T23:06:02.677Z,3.87
2018-06-18T23:08:31.226Z,3.30
2018-06-18T23:10:59.830Z,3.63
2018-06-18T23:13:30.970Z,3.40
2018-06-18T23:16:00.049Z,3.80
2018-06-18T23:18:28.669Z,3.53
2018-06-18T23:20:58.095Z,3.47
2018-06-18T23:23:26.716Z,4.17
2018-06-18T23:25:55.286Z,3.97
2018-06-18T23:28:25.419Z,3.43
2018-06-18T23:30:53.628Z,3.37
2018-06-18T23:33:22.172Z,3.83
2018-06-18T23:35:50.389Z,3.60
2018-06-18T23:38:18.944Z,3.80
2018-06-18T23:43:21.819Z,3.60
2018-06-18T23:45:50.391Z,3.50
2018-06-18T23:48:19.002Z,4.07
2018-06-18T23:50:47.584Z,3.60
2018-06-18T23:53:16.129Z,3.77
2018-06-18T23:55:44.688Z,3.63
2018-06-18T23:58:13.266Z,3.43
